Coronel Juan Sola, Argentina
Current Conditions -  °F | °C
As of 7:00 PM on Thursday 20 Nov 2014 (Local Time) from SLYA Reporting Station
Overcast Overcast  
Wind Chill: 72°   Ceiling: 300
Heat Index: 72°   Visibility: 6mi
Dew Point: 70°   Wind: 6mph
Humidity: 94%   Direction: 180°S
Pressure: 29.8"   Gusts: NA
Location:  23.47°S, 62.88°W
Report Text: SLYA 202200Z 18005KT 9999 BKN003 OVC070 22/21 Q1009
Loading
Personal Weather Stations






























Interactive Weather Map New forecast layout! Learn more

10-Day Weather Forecast

Advertisements
Track Severe Weather on mobile